Time;durP1;ratioP1;P1;durP2;ratioP2;P2;SDS_P1;SDS_P2;PMS_P1;PMS_P2;Temp;Humidity;BMP_temperature;BMP_pressure;BME280_temperature;BME280_humidity;BME280_pressure;Samples;Min_cycle;Max_cycle;Signal;HPM_P1;HPM_P2
2022/09/03 00:01:00;;;;;;;5.38;4.30;;;;;;;20.27;100.00;98007.88;5074014;28;20184;-59
2022/09/03 00:03:44;;;;;;;6.63;4.13;;;;;;;20.27;100.00;98007.06;5074024;28;20165;-59
2022/09/03 00:06:16;;;;;;;8.32;4.10;;;;;;;20.32;100.00;98010.81;5055777;28;20206;-59
2022/09/03 00:08:52;;;;;;;7.47;4.30;;;;;;;20.32;100.00;98015.25;5073671;28;20172;-59
2022/09/03 00:11:22;;;;;;;13.88;5.35;;;;;;;20.28;100.00;98017.41;5074185;28;20251;-59
2022/09/03 00:14:10;;;;;;;4.40;4.10;;;;;;;20.20;100.00;98014.00;5074071;28;20176;-59
2022/09/03 00:16:50;;;;;;;5.60;4.55;;;;;;;20.13;100.00;98027.03;5072516;28;20192;-59
2022/09/03 00:19:21;;;;;;;5.15;4.30;;;;;;;20.19;100.00;98022.88;5074028;28;20179;-59
2022/09/03 00:22:07;;;;;;;8.38;4.75;;;;;;;19.90;100.00;98025.31;5073662;28;20667;-59
2022/09/03 00:24:37;;;;;;;7.40;5.10;;;;;;;19.95;100.00;98033.50;5073596;28;20165;-59
2022/09/03 00:27:06;;;;;;;6.95;5.22;;;;;;;19.72;100.00;98030.00;5073277;28;20194;-59
2022/09/03 00:29:38;;;;;;;10.75;5.43;;;;;;;19.62;100.00;98039.91;5073345;28;20180;-59
2022/09/03 00:32:15;;;;;;;5.45;4.95;;;;;;;19.63;100.00;98031.03;5073444;28;20184;-59
2022/09/03 00:34:48;;;;;;;6.32;4.55;;;;;;;19.69;100.00;98033.00;5073490;28;20202;-59
2022/09/03 00:37:13;;;;;;;5.45;4.28;;;;;;;19.85;100.00;98030.28;5072937;28;20234;-59
2022/09/03 00:39:39;;;;;;;11.05;4.53;;;;;;;19.90;100.00;98025.31;5073261;28;20247;-59
2022/09/03 00:42:07;;;;;;;7.50;4.35;;;;;;;19.90;100.00;98020.91;5073199;28;20219;-59
2022/09/03 00:44:47;;;;;;;4.80;4.45;;;;;;;19.94;100.00;98018.75;5073203;28;20200;-59
2022/09/03 00:47:40;;;;;;;6.63;4.35;;;;;;;20.12;100.00;98014.06;5073485;28;20164;-59
2022/09/03 00:50:13;;;;;;;5.47;4.35;;;;;;;20.15;100.00;98004.03;5073154;28;20663;-59
2022/09/03 00:52:53;;;;;;;5.55;4.60;;;;;;;20.17;100.00;98011.75;5072750;28;20164;-59
2022/09/03 00:55:27;;;;;;;9.05;4.85;;;;;;;20.00;100.00;98008.34;5072687;28;20172;-59
2022/09/03 00:58:04;;;;;;;4.40;4.00;;;;;;;20.02;100.00;98009.03;5072804;28;20161;-59
2022/09/03 01:00:30;;;;;;;6.63;4.22;;;;;;;20.00;100.00;97999.66;5072686;28;20199;-59
2022/09/03 01:03:22;;;;;;;7.05;3.83;;;;;;;19.98;100.00;98007.72;5072635;28;20203;-59
2022/09/03 01:06:12;;;;;;;4.22;3.92;;;;;;;19.93;100.00;98009.25;5072836;28;20157;-59
2022/09/03 01:08:58;;;;;;;10.95;4.68;;;;;;;19.90;100.00;97996.44;5072773;28;20224;-59
2022/09/03 01:11:33;;;;;;;6.70;4.47;;;;;;;19.95;100.00;98007.25;5072777;28;20161;-59
2022/09/03 01:14:33;;;;;;;10.27;5.00;;;;;;;19.88;100.00;98006.31;5054457;28;20203;-59
2022/09/03 01:17:02;;;;;;;14.43;5.70;;;;;;;19.75;100.00;98000.81;5072375;28;20710;-59
2022/09/03 01:19:46;;;;;;;11.65;5.43;;;;;;;19.43;100.00;98006.19;5054385;28;20225;-59
2022/09/03 01:22:48;;;;;;;11.15;4.97;;;;;;;19.45;100.00;98004.19;5072401;28;20233;-59
2022/09/03 01:25:31;;;;;;;6.88;5.20;;;;;;;19.67;100.00;98011.34;5072527;28;20156;-59
2022/09/03 01:28:13;;;;;;;8.25;4.93;;;;;;;19.73;100.00;98008.03;5072070;28;20518;-59
2022/09/03 01:30:47;;;;;;;10.63;5.50;;;;;;;19.56;100.00;98004.66;5072146;28;20176;-59
2022/09/03 01:33:16;;;;;;;7.88;4.90;;;;;;;19.65;100.00;98005.44;5072757;28;20656;-59
2022/09/03 01:35:50;;;;;;;5.45;4.68;;;;;;;19.60;100.00;98013.84;5071873;28;20219;-59
2022/09/03 01:38:27;;;;;;;6.25;5.07;;;;;;;19.46;100.00;98017.16;5072177;28;20168;-59
2022/09/03 01:44:25;;;;;;;5.82;5.05;;;;;;;19.49;100.00;98019.47;5072351;28;20168;-59
2022/09/03 01:47:09;;;;;;;5.15;4.75;;;;;;;19.55;100.00;98012.69;5072048;28;20637;-59
2022/09/03 01:49:56;;;;;;;5.90;4.90;;;;;;;19.58;100.00;98009.75;5072117;28;20157;-59
2022/09/03 01:52:51;;;;;;;6.35;5.13;;;;;;;19.59;100.00;98021.88;5072339;28;20235;-59
2022/09/03 01:55:41;;;;;;;6.25;4.75;;;;;;;19.60;100.00;98020.88;5072155;28;20192;-59
2022/09/03 01:58:10;;;;;;;10.35;5.03;;;;;;;19.42;100.00;98015.84;5072097;28;20188;-59
2022/09/03 02:00:41;;;;;;;5.65;4.95;;;;;;;19.22;100.00;98024.28;5071846;28;20613;-59
2022/09/03 02:03:09;;;;;;;6.95;5.03;;;;;;;19.11;100.00;98019.38;5071895;28;20207;-59
2022/09/03 02:05:35;;;;;;;6.15;5.35;;;;;;;19.25;100.00;98027.41;5072102;28;20168;-59
2022/09/03 02:08:06;;;;;;;7.18;5.22;;;;;;;19.18;100.00;98017.72;5071822;28;20563;-59
2022/09/03 02:10:34;;;;;;;8.32;5.88;;;;;;;19.06;100.00;98014.63;5071833;28;20239;-59
2022/09/03 02:13:09;;;;;;;6.50;5.03;;;;;;;19.13;100.00;98025.28;5071760;28;20567;-59
2022/09/03 02:15:42;;;;;;;5.20;4.70;;;;;;;19.07;100.00;98025.94;5071634;28;20192;-59
2022/09/03 02:18:16;;;;;;;9.10;5.63;;;;;;;19.16;100.00;98025.75;5071718;28;20165;-59
2022/09/03 02:20:41;;;;;;;7.15;5.25;;;;;;;19.21;100.00;98020.84;5071993;28;20167;-59
2022/09/03 02:23:07;;;;;;;5.35;4.55;;;;;;;19.30;100.00;98024.28;5071992;28;20168;-59
2022/09/03 02:25:37;;;;;;;8.55;4.90;;;;;;;19.28;100.00;98026.22;5053646;28;20183;-59
2022/09/03 02:28:05;;;;;;;7.25;4.68;;;;;;;19.38;100.00;98035.56;5071888;28;20161;-59
2022/09/03 02:30:30;;;;;;;11.70;5.40;;;;;;;19.35;100.00;98037.72;5071541;28;20226;-59
2022/09/03 02:32:56;;;;;;;9.63;6.10;;;;;;;19.28;100.00;98031.47;5071789;28;20726;-59
2022/09/03 02:35:21;;;;;;;7.07;4.65;;;;;;;19.35;100.00;98035.09;5071636;28;20377;-59
2022/09/03 02:37:47;;;;;;;15.10;5.68;;;;;;;19.28;100.00;98037.56;5071448;28;20188;-59
2022/09/03 02:40:12;;;;;;;10.93;5.15;;;;;;;19.26;100.00;98047.41;5072892;28;20187;-59
2022/09/03 02:42:38;;;;;;;7.38;5.03;;;;;;;19.24;100.00;98054.59;5057290;28;20562;-59
2022/09/03 02:45:20;;;;;;;11.00;6.47;;;;;;;19.26;100.00;98043.97;5075496;28;20663;-59
2022/09/03 02:47:49;;;;;;;8.73;5.20;;;;;;;19.37;100.00;98048.84;5075484;28;20184;-59
2022/09/03 02:50:14;;;;;;;7.03;4.70;;;;;;;19.45;100.00;98048.81;5075140;28;20176;-59
2022/09/03 02:52:39;;;;;;;7.15;4.72;;;;;;;19.45;100.00;98046.19;5075312;28;20234;-59
2022/09/03 02:55:05;;;;;;;4.88;4.35;;;;;;;19.53;100.00;98048.81;5074967;28;20192;-59
2022/09/03 02:57:30;;;;;;;10.63;4.55;;;;;;;19.60;100.00;98041.88;5075050;28;20222;-59
2022/09/03 02:59:56;;;;;;;5.65;5.15;;;;;;;19.57;100.00;98040.41;5074924;28;20199;-59
2022/09/03 03:02:21;;;;;;;5.55;4.25;;;;;;;19.61;100.00;98046.97;5074916;28;20251;-59
2022/09/03 03:04:47;;;;;;;8.23;4.68;;;;;;;19.56;100.00;98051.06;5075331;28;20172;-59
2022/09/03 03:07:12;;;;;;;6.05;4.85;;;;;;;19.44;100.00;98039.31;5075121;28;20173;-59
2022/09/03 03:09:37;;;;;;;8.77;4.80;;;;;;;19.46;100.00;98047.84;5075331;28;20263;-59
2022/09/03 03:12:03;;;;;;;5.40;4.90;;;;;;;19.48;100.00;98043.25;5074740;28;20161;-59
2022/09/03 03:14:28;;;;;;;4.78;4.30;;;;;;;19.50;100.00;98044.72;5074610;28;20749;-59
2022/09/03 03:16:54;;;;;;;6.80;5.00;;;;;;;19.50;100.00;98042.09;5074831;28;20173;-59
2022/09/03 03:19:19;;;;;;;7.40;5.43;;;;;;;19.48;100.00;98035.38;5075100;28;20207;-59
2022/09/03 03:21:45;;;;;;;9.27;4.65;;;;;;;19.36;100.00;98037.53;5074586;28;20178;-59
2022/09/03 03:24:10;;;;;;;6.45;4.63;;;;;;;19.43;100.00;98040.31;5074509;28;20233;-59
2022/09/03 03:26:36;;;;;;;7.03;4.50;;;;;;;19.44;100.00;98047.19;5074502;28;20168;-59
2022/09/03 03:29:05;;;;;;;12.68;5.05;;;;;;;19.41;100.00;98040.47;5074448;28;20570;-59
2022/09/03 03:31:32;;;;;;;8.77;5.38;;;;;;;19.39;100.00;98034.56;5074674;28;20234;-59
2022/09/03 03:34:00;;;;;;;9.18;5.35;;;;;;;19.20;100.00;98034.94;5074318;28;20251;-59
2022/09/03 03:36:28;;;;;;;7.00;5.05;;;;;;;19.07;100.00;98036.44;5074153;28;20600;-59
2022/09/03 03:38:56;;;;;;;10.88;5.70;;;;;;;19.11;100.00;98041.16;5074252;28;20177;-59
2022/09/03 03:41:30;;;;;;;9.23;5.75;;;;;;;18.91;100.00;98032.03;5074459;28;20298;-59
2022/09/03 03:43:57;;;;;;;10.10;5.30;;;;;;;18.88;100.00;98037.59;5074163;28;20160;-59
2022/09/03 03:46:24;;;;;;;8.30;5.38;;;;;;;18.84;100.00;98035.47;5074366;28;20169;-59
2022/09/03 03:48:51;;;;;;;8.15;5.32;;;;;;;18.85;100.00;98037.09;5074061;28;20255;-59
2022/09/03 03:51:17;;;;;;;8.27;4.95;;;;;;;19.01;100.00;98039.72;5073936;28;20672;-59
2022/09/03 03:53:44;;;;;;;7.75;5.20;;;;;;;19.03;100.00;98040.38;5073955;28;20218;-59
2022/09/03 03:56:12;;;;;;;5.07;4.72;;;;;;;19.01;100.00;98040.53;5055965;28;20200;-59
2022/09/03 03:58:42;;;;;;;7.07;5.18;;;;;;;19.05;100.00;98038.41;5073902;28;20274;-59
2022/09/03 04:01:18;;;;;;;7.80;5.43;;;;;;;19.00;100.00;98041.50;5073851;28;20164;-59
2022/09/03 04:03:44;;;;;;;7.60;4.97;;;;;;;19.01;100.00;98044.97;5056237;28;20168;-59
2022/09/03 04:06:12;;;;;;;7.13;4.63;;;;;;;19.05;100.00;98041.84;5073696;28;20173;-60
2022/09/03 04:08:39;;;;;;;7.78;4.95;;;;;;;19.03;100.00;98040.38;5073671;28;20218;-59
2022/09/03 04:11:08;;;;;;;6.53;5.63;;;;;;;19.02;100.00;98038.72;5073669;28;20212;-59
2022/09/03 04:13:42;;;;;;;5.70;4.85;;;;;;;18.99;100.00;98044.28;5073864;28;20160;-59
2022/09/03 04:16:12;;;;;;;6.93;4.95;;;;;;;19.00;100.00;98048.56;5073339;28;20586;-59
2022/09/03 04:18:39;;;;;;;5.15;4.75;;;;;;;18.96;100.00;98050.72;5073516;28;20164;-59
2022/09/03 04:21:07;;;;;;;7.88;4.90;;;;;;;19.00;100.00;98051.19;5073430;28;20176;-59
2022/09/03 04:23:35;;;;;;;6.40;5.38;;;;;;;19.02;100.00;98049.22;5073399;28;20256;-59
2022/09/03 04:26:01;;;;;;;5.25;4.55;;;;;;;18.99;100.00;98054.78;5073335;28;20671;-59
2022/09/03 04:28:27;;;;;;;5.80;4.45;;;;;;;19.01;100.00;98053.63;5073274;28;20177;-59
2022/09/03 04:30:53;;;;;;;6.82;5.20;;;;;;;18.96;100.00;98065.63;5073218;28;20168;-59
2022/09/03 04:33:18;;;;;;;9.45;4.95;;;;;;;18.93;100.00;98050.19;5073189;28;20600;-59
2022/09/03 04:35:44;;;;;;;8.30;4.97;;;;;;;19.04;100.00;98053.31;5072859;28;20200;-59
2022/09/03 04:38:10;;;;;;;6.18;5.18;;;;;;;19.09;100.00;98055.44;5073342;28;20178;-59
2022/09/03 04:40:36;;;;;;;6.80;5.10;;;;;;;19.16;100.00;98056.41;5073030;28;20169;-59
2022/09/03 04:43:02;;;;;;;6.00;4.53;;;;;;;19.19;100.00;98064.78;5072877;28;20203;-59
2022/09/03 04:45:28;;;;;;;8.00;4.50;;;;;;;19.27;100.00;98063.94;5073131;28;20176;-59
2022/09/03 04:47:57;;;;;;;4.72;4.22;;;;;;;19.35;100.00;98062.13;5072959;28;20168;-59
2022/09/03 04:50:23;;;;;;;4.70;4.30;;;;;;;19.36;100.00;98070.81;5073127;28;20664;-59
2022/09/03 04:52:48;;;;;;;5.03;4.50;;;;;;;19.38;100.00;98071.47;5072795;28;20259;-59
2022/09/03 04:55:15;;;;;;;4.50;4.20;;;;;;;19.49;100.00;98074.56;5072693;28;20252;-59
2022/09/03 04:57:41;;;;;;;9.50;4.43;;;;;;;19.54;100.00;98074.06;5072996;28;20633;-59
2022/09/03 05:00:10;;;;;;;6.68;4.50;;;;;;;19.56;100.00;98091.28;5072588;28;20229;-59
2022/09/03 05:02:36;;;;;;;6.25;4.45;;;;;;;19.56;100.00;98093.06;5072100;28;20652;-59
2022/09/03 05:05:01;;;;;;;4.75;4.35;;;;;;;19.68;100.00;98095.16;5072546;28;20306;-59
2022/09/03 05:07:27;;;;;;;5.05;4.35;;;;;;;19.82;100.00;98104.16;5072595;28;20172;-59
2022/09/03 05:09:53;;;;;;;8.70;4.72;;;;;;;19.85;100.00;98101.19;5072760;28;20258;-59
2022/09/03 05:12:19;;;;;;;5.85;4.85;;;;;;;19.89;100.00;98102.47;5072466;28;20653;-59
2022/09/03 05:14:45;;;;;;;6.95;4.85;;;;;;;20.01;100.00;98103.75;5072337;28;20648;-59
2022/09/03 05:17:10;;;;;;;4.50;4.00;;;;;;;19.96;100.00;98098.19;5072575;28;20249;-59
2022/09/03 05:19:35;;;;;;;8.38;4.75;;;;;;;20.03;100.00;98099.94;5072302;28;20282;-59
2022/09/03 05:22:01;;;;;;;5.40;4.05;;;;;;;20.22;100.00;98101.38;5072441;28;20172;-59
2022/09/03 05:24:26;;;;;;;6.50;4.47;;;;;;;20.24;100.00;98097.59;5072275;28;20183;-59
2022/09/03 05:26:52;;;;;;;5.40;4.30;;;;;;;20.32;100.00;98099.31;5072244;28;20233;-59
2022/09/03 05:29:18;;;;;;;4.53;4.13;;;;;;;20.39;100.00;98098.47;5072144;28;20230;-59
2022/09/03 05:31:44;;;;;;;6.90;4.82;;;;;;;20.47;100.00;98097.59;5072160;28;20263;-59
2022/09/03 05:34:10;;;;;;;5.00;4.03;;;;;;;20.49;100.00;98101.69;5072260;28;20256;-59
2022/09/03 05:36:37;;;;;;;4.63;4.07;;;;;;;20.51;100.00;98109.41;5072084;28;20218;-59
2022/09/03 05:39:04;;;;;;;5.40;3.83;;;;;;;20.60;100.00;98110.97;5072374;28;20234;-59
2022/09/03 05:41:31;;;;;;;7.55;4.25;;;;;;;20.63;100.00;98116.72;5072026;28;20172;-59
2022/09/03 05:43:59;;;;;;;4.18;3.80;;;;;;;20.69;100.00;98110.75;5071969;28;20176;-60
2022/09/03 05:46:30;;;;;;;6.63;3.97;;;;;;;20.65;100.00;98116.53;5072478;28;20176;-59
2022/09/03 05:49:00;;;;;;;6.22;4.55;;;;;;;20.74;100.00;98111.03;5072590;28;20222;-59
2022/09/03 05:51:27;;;;;;;4.45;4.03;;;;;;;20.79;100.00;98118.41;5072491;28;20157;-59
2022/09/03 05:53:54;;;;;;;9.77;4.38;;;;;;;20.80;100.00;98126.13;5072075;28;20172;-59
2022/09/03 05:56:21;;;;;;;4.75;4.28;;;;;;;20.89;100.00;98119.03;5071867;28;20192;-59
2022/09/03 05:58:51;;;;;;;7.35;4.03;;;;;;;20.97;100.00;98127.66;5071867;28;20260;-59
2022/09/03 06:01:26;;;;;;;4.68;3.97;;;;;;;21.05;100.00;98130.22;5072198;28;20252;-59
2022/09/03 06:03:57;;;;;;;4.03;3.63;;;;;;;21.20;100.00;98132.91;5072310;28;20168;-59
2022/09/03 06:06:24;;;;;;;5.75;3.95;;;;;;;21.30;100.00;98138.72;5071973;28;20240;-59
2022/09/03 06:08:51;;;;;;;7.00;4.05;;;;;;;21.33;100.00;98141.03;5072047;28;20172;-59
2022/09/03 06:11:17;;;;;;;6.95;4.45;;;;;;;21.27;100.00;98136.47;5071796;28;20276;-60
2022/09/03 06:13:43;;;;;;;4.05;3.70;;;;;;;21.40;100.00;98128.78;5071774;28;20319;-60
2022/09/03 06:16:08;;;;;;;6.65;4.68;;;;;;;21.44;100.00;98127.44;5074780;28;20257;-60
2022/09/03 06:18:34;;;;;;;6.63;4.72;;;;;;;21.49;100.00;98122.41;5075785;28;20179;-60
2022/09/03 06:21:02;;;;;;;8.27;4.32;;;;;;;21.59;100.00;98125.63;5075754;28;20690;-57
2022/09/03 06:23:29;;;;;;;4.70;4.30;;;;;;;21.68;100.00;98127.22;5075705;28;20175;-57
2022/09/03 06:26:03;;;;;;;4.28;3.90;;;;;;;21.76;100.00;98135.84;5075702;28;20234;-57
2022/09/03 06:28:31;;;;;;;4.38;3.92;;;;;;;21.93;100.00;98142.56;5075586;28;20210;-57
2022/09/03 06:30:58;;;;;;;5.18;3.88;;;;;;;22.03;100.00;98142.28;5075760;28;20670;-57
2022/09/03 06:33:24;;;;;;;5.95;4.15;;;;;;;22.09;100.00;98146.81;5075435;28;20207;-58
2022/09/03 06:35:58;;;;;;;6.45;4.75;;;;;;;22.14;100.00;98144.44;5075306;28;20237;-58
2022/09/03 06:38:26;;;;;;;5.68;4.00;;;;;;;22.31;100.00;98148.53;5057523;28;20605;-58
2022/09/03 06:40:55;;;;;;;5.30;4.30;;;;;;;22.39;100.00;98140.50;5075297;28;20168;-59
2022/09/03 06:43:22;;;;;;;8.23;4.43;;;;;;;22.46;100.00;98138.78;5075288;28;20200;-58
2022/09/03 06:46:02;;;;;;;4.40;3.90;;;;;;;22.56;100.00;98147.22;5075476;28;20176;-58
2022/09/03 06:48:30;;;;;;;4.50;4.13;;;;;;;22.59;100.00;98149.47;5075326;28;20164;-58
2022/09/03 06:51:01;;;;;;;4.95;4.25;;;;;;;22.68;100.00;98151.78;5075102;28;20180;-58
2022/09/03 06:53:33;;;;;;;5.75;4.10;;;;;;;22.70;100.00;98155.09;5075314;28;20176;-58
2022/09/03 06:56:07;;;;;;;6.53;5.05;;;;;;;22.77;100.00;98150.69;5075056;28;20552;-58
2022/09/03 06:58:37;;;;;;;4.53;4.20;;;;;;;22.84;100.00;98156.84;5057126;28;20165;-58
2022/09/03 07:01:08;;;;;;;9.35;5.22;;;;;;;22.96;100.00;98154.53;5075188;28;20152;-58
2022/09/03 07:03:35;;;;;;;6.30;5.70;;;;;;;23.08;100.00;98155.66;5074950;28;20176;-59
2022/09/03 07:06:02;;;;;;;10.07;6.13;;;;;;;23.18;100.00;98156.16;5074872;28;20239;-58
2022/09/03 07:08:28;;;;;;;10.27;5.20;;;;;;;23.23;100.00;98157.25;5075094;28;20179;-58
2022/09/03 07:10:53;;;;;;;7.82;6.30;;;;;;;23.36;100.00;98159.19;5075325;28;20172;-58
2022/09/03 07:13:19;;;;;;;10.57;7.13;;;;;;;23.35;100.00;98154.88;5074701;28;20597;-58
2022/09/03 07:15:45;;;;;;;7.82;6.18;;;;;;;23.37;100.00;98152.91;5056702;28;20292;-58
2022/09/03 07:18:10;;;;;;;7.72;5.35;;;;;;;23.39;100.00;98151.69;5056658;28;20262;-58
2022/09/03 07:20:35;;;;;;;6.65;4.60;;;;;;;23.29;100.00;98158.28;5074467;28;20169;-59
2022/09/03 07:23:01;;;;;;;6.40;4.30;;;;;;;23.28;100.00;98146.09;5074608;28;20164;-58
2022/09/03 07:25:27;;;;;;;8.60;5.15;;;;;;;23.39;100.00;98150.88;5074089;28;20653;-59
2022/09/03 07:27:53;;;;;;;6.00;4.85;;;;;;;23.52;100.00;98158.88;5074421;28;20739;-58
2022/09/03 07:30:19;;;;;;;7.55;5.38;;;;;;;23.62;100.00;98165.47;5056429;28;20237;-58
2022/09/03 07:32:45;;;;;;;15.07;12.15;;;;;;;23.79;100.00;98166.81;5074372;28;20176;-58
2022/09/03 07:35:12;;;;;;;7.07;5.85;;;;;;;23.89;100.00;98169.16;5056795;28;20188;-59
2022/09/03 07:37:41;;;;;;;6.05;5.40;;;;;;;23.97;100.00;98172.47;5074158;28;20208;-59
2022/09/03 07:40:09;;;;;;;7.75;6.22;;;;;;;24.12;100.00;98172.34;5074267;28;20525;-59
2022/09/03 07:42:37;;;;;;;8.93;7.30;;;;;;;24.23;100.00;98165.47;5074368;28;20674;-59
2022/09/03 07:45:04;;;;;;;8.30;7.50;;;;;;;24.35;100.00;98161.25;5074153;28;20668;-59
2022/09/03 07:47:31;;;;;;;10.27;7.32;;;;;;;24.47;100.00;98172.91;5073977;28;20657;-59
2022/09/03 07:49:56;;;;;;;8.32;7.50;;;;;;;24.56;100.00;98171.69;5074319;28;20253;-59
2022/09/03 07:52:22;;;;;;;7.75;7.03;;;;;;;24.68;100.00;98170.13;5074015;28;20230;-59
2022/09/03 07:54:47;;;;;;;8.50;7.18;;;;;;;24.68;100.00;98180.72;5073895;28;20245;-59
2022/09/03 07:57:12;;;;;;;10.07;7.13;;;;;;;24.73;100.00;98173.00;5073910;28;20274;-59
2022/09/03 07:59:38;;;;;;;9.23;7.43;;;;;;;24.80;100.00;98167.72;5073601;28;20261;-59
2022/09/03 08:02:04;;;;;;;8.35;7.60;;;;;;;24.88;100.00;98173.66;5073008;28;20305;-59
2022/09/03 08:07:03;;;;;;;7.22;6.50;;;;;;;25.02;100.00;98174.50;5030542;28;20233;-57
2022/09/03 08:09:28;;;;;;;8.38;7.53;;;;;;;25.06;100.00;98168.59;5033892;28;20182;-56
2022/09/03 08:11:53;;;;;;;8.27;7.47;;;;;;;25.12;100.00;98174.91;5034495;28;20684;-56
2022/09/03 08:14:19;;;;;;;7.88;7.07;;;;;;;25.15;100.00;98161.28;5053094;28;20173;-56
2022/09/03 08:16:46;;;;;;;7.18;6.57;;;;;;;25.10;100.00;98169.84;5043440;28;20182;-57
2022/09/03 08:19:12;;;;;;;9.95;7.25;;;;;;;25.12;100.00;98162.50;5049273;28;20188;-57
2022/09/03 08:21:40;;;;;;;11.23;7.50;;;;;;;25.08;100.00;98169.19;5049818;28;20166;-57
2022/09/03 08:24:07;;;;;;;9.25;6.78;;;;;;;24.99;100.00;98153.72;5033593;28;20205;-59
2022/09/03 08:26:35;;;;;;;7.97;6.82;;;;;;;25.09;100.00;98172.69;5033397;28;20216;-53
2022/09/03 08:29:01;;;;;;;7.50;6.78;;;;;;;25.13;100.00;98164.13;5033436;28;20643;-54
2022/09/03 08:31:28;;;;;;;9.70;7.03;;;;;;;25.24;100.00;98163.56;5033035;28;20203;-54
2022/09/03 08:33:56;;;;;;;9.00;7.18;;;;;;;25.22;100.00;98165.56;5051705;28;20692;-54
2022/09/03 08:36:28;;;;;;;9.45;7.00;;;;;;;25.23;100.00;98167.19;5034924;28;20264;-54
2022/09/03 08:38:55;;;;;;;9.00;6.93;;;;;;;25.23;100.00;98167.19;5032379;28;20174;-54
2022/09/03 08:41:36;;;;;;;12.50;7.65;;;;;;;25.31;100.00;98164.34;5031543;28;20208;-54
2022/09/03 08:44:24;;;;;;;8.70;6.68;;;;;;;25.37;100.00;98165.41;5033381;28;20237;-54
2022/09/03 08:47:04;;;;;;;7.22;6.53;;;;;;;25.40;100.00;98168.44;5033049;28;20588;-54
2022/09/03 08:49:41;;;;;;;7.40;6.65;;;;;;;25.48;100.00;98170.88;5033420;28;20549;-54
2022/09/03 08:52:24;;;;;;;8.05;7.18;;;;;;;25.54;100.00;98170.06;5033046;28;20249;-54
2022/09/03 08:54:54;;;;;;;7.63;6.88;;;;;;;25.67;100.00;98164.75;5032827;28;20547;-54
2022/09/03 08:57:20;;;;;;;9.43;6.80;;;;;;;25.72;100.00;98169.44;5032902;28;20174;-54
2022/09/03 08:59:51;;;;;;;9.93;7.03;;;;;;;25.75;100.00;98155.78;5032745;28;20173;-54
2022/09/03 09:02:45;;;;;;;8.68;6.50;;;;;;;25.84;99.53;98155.34;5033101;28;20166;-54
2022/09/03 09:05:16;;;;;;;7.47;6.78;;;;;;;25.86;99.05;98161.28;5033175;28;20162;-54
2022/09/03 09:07:58;;;;;;;7.63;6.13;;;;;;;25.91;97.67;98152.72;5032692;28;20577;-54
2022/09/03 09:10:45;;;;;;;7.82;6.80;;;;;;;25.95;97.06;98149.44;5032613;28;20304;-54
2022/09/03 09:13:17;;;;;;;7.10;6.50;;;;;;;26.03;96.48;98166.97;5032614;28;20654;-54
2022/09/03 09:15:53;;;;;;;7.22;6.35;;;;;;;26.07;94.37;98163.69;5032742;28;20252;-54
2022/09/03 09:18:25;;;;;;;7.15;5.97;;;;;;;26.06;93.50;98167.38;5032827;28;20248;-54
2022/09/03 09:21:08;;;;;;;7.20;6.47;;;;;;;26.10;90.68;98163.28;5032667;28;20185;-54
2022/09/03 09:23:47;;;;;;;6.40;5.80;;;;;;;26.13;92.09;98165.50;5032597;28;20219;-53
2022/09/03 09:26:16;;;;;;;7.53;6.78;;;;;;;26.15;92.42;98166.13;5032542;28;20168;-53
2022/09/03 09:28:50;;;;;;;6.90;6.15;;;;;;;26.24;90.78;98175.47;5032292;28;20564;-53
2022/09/03 09:31:17;;;;;;;6.88;6.20;;;;;;;26.28;91.14;98171.38;5032638;28;20169;-53
2022/09/03 09:33:43;;;;;;;7.20;6.47;;;;;;;26.32;93.93;98169.94;5032566;28;20665;-53
2022/09/03 09:36:15;;;;;;;7.40;6.68;;;;;;;26.32;92.74;98155.84;5032082;28;20721;-53
2022/09/03 09:38:41;;;;;;;7.35;6.53;;;;;;;26.45;91.99;98169.06;5032503;28;20518;-53
2022/09/03 09:41:14;;;;;;;8.65;5.70;;;;;;;26.48;90.78;98166.78;5032433;28;20229;-53
2022/09/03 09:43:40;;;;;;;6.75;6.15;;;;;;;26.49;90.38;98171.09;5032114;28;20173;-53
2022/09/03 09:46:12;;;;;;;8.02;6.90;;;;;;;26.54;90.08;98168.63;5032061;28;20642;-53
2022/09/03 09:48:47;;;;;;;11.52;8.77;;;;;;;26.52;90.30;98148.59;5031905;28;20166;-53
2022/09/03 09:51:36;;;;;;;7.97;6.80;;;;;;;26.58;89.48;98161.88;5032491;28;20737;-53
2022/09/03 09:54:26;;;;;;;7.80;6.78;;;;;;;26.56;87.88;98163.94;5031737;28;20182;-53
2022/09/03 09:57:22;;;;;;;7.32;6.63;;;;;;;26.59;90.57;98154.75;5032273;28;20181;-53
2022/09/03 09:59:49;;;;;;;7.63;6.47;;;;;;;26.75;89.23;98167.50;5030581;28;20649;-53
2022/09/03 10:02:19;;;;;;;6.72;6.20;;;;;;;26.92;87.23;98161.50;5032054;28;20567;-53
2022/09/03 10:04:45;;;;;;;9.88;6.60;;;;;;;26.99;85.52;98162.25;5032251;28;20177;-53
2022/09/03 10:07:24;;;;;;;7.72;6.13;;;;;;;27.09;85.54;98161.78;5031788;28;20596;-53
2022/09/03 10:10:02;;;;;;;7.47;6.68;;;;;;;27.19;85.57;98149.72;5031940;28;20182;-53
2022/09/03 10:12:34;;;;;;;7.63;7.00;;;;;;;27.32;84.78;98154.91;5031852;28;20666;-53
2022/09/03 10:15:02;;;;;;;8.32;7.47;;;;;;;27.49;84.18;98153.34;5031826;28;20189;-53
2022/09/03 10:17:49;;;;;;;8.40;7.32;;;;;;;27.60;80.64;98149.97;5031800;28;20654;-54
2022/09/03 10:20:31;;;;;;;6.55;5.95;;;;;;;27.77;76.65;98152.88;5031919;28;20174;-53
2022/09/03 10:23:27;;;;;;;8.00;6.53;;;;;;;27.96;72.48;98149.22;5031734;28;20295;-54
2022/09/03 10:26:13;;;;;;;8.65;6.50;;;;;;;28.11;70.50;98147.81;5032093;28;20231;-53
2022/09/03 10:28:41;;;;;;;7.38;6.45;;;;;;;28.25;65.08;98141.31;5032090;28;20544;-53
2022/09/03 10:31:32;;;;;;;7.60;6.63;;;;;;;28.34;64.59;98145.28;5031726;28;20170;-53
2022/09/03 10:34:17;;;;;;;10.85;6.80;;;;;;;28.45;65.44;98136.59;5031972;28;20173;-53
2022/09/03 10:36:51;;;;;;;8.05;6.25;;;;;;;28.54;65.59;98143.25;5031691;28;20542;-54
2022/09/03 10:39:51;;;;;;;7.18;6.15;;;;;;;28.61;63.21;98151.94;5032139;28;20264;-53
2022/09/03 10:42:55;;;;;;;6.95;6.25;;;;;;;28.66;63.28;98148.59;5031829;28;20761;-53
2022/09/03 10:45:39;;;;;;;7.32;6.63;;;;;;;28.87;62.99;98143.56;5031820;28;20186;-53
2022/09/03 10:48:23;;;;;;;6.72;6.03;;;;;;;28.77;61.04;98148.66;5031832;28;20173;-54
2022/09/03 10:51:19;;;;;;;7.32;6.72;;;;;;;29.00;61.39;98153.28;5031515;28;20174;-54
2022/09/03 10:53:53;;;;;;;6.68;6.00;;;;;;;29.25;60.78;98160.06;5031522;28;20258;-53
2022/09/03 10:57:03;;;;;;;7.13;6.40;;;;;;;29.41;59.45;98150.56;5031670;28;20201;-54
2022/09/03 10:59:32;;;;;;;8.38;6.30;;;;;;;29.57;59.23;98149.94;5031659;28;20166;-54
2022/09/03 11:02:39;;;;;;;7.95;6.55;;;;;;;29.62;57.67;98150.06;5033891;28;20211;-54
2022/09/03 11:05:11;;;;;;;7.07;6.03;;;;;;;29.73;57.05;98146.56;5036126;28;20618;-53
2022/09/03 11:07:44;;;;;;;7.40;6.10;;;;;;;29.75;57.47;98147.97;5034876;28;20205;-54
2022/09/03 11:10:28;;;;;;;7.28;5.97;;;;;;;29.92;55.07;98148.06;5035215;28;20249;-53
2022/09/03 11:12:56;;;;;;;6.70;6.10;;;;;;;30.07;55.93;98140.41;5034904;28;20169;-54
2022/09/03 11:15:37;;;;;;;6.22;5.63;;;;;;;30.14;55.25;98147.25;5035046;28;20206;-53
2022/09/03 11:18:14;;;;;;;6.78;6.07;;;;;;;30.24;55.94;98152.81;5035100;28;20158;-53
2022/09/03 11:20:41;;;;;;;7.30;6.05;;;;;;;30.35;54.02;98159.16;5034793;28;20162;-53
2022/09/03 11:23:12;;;;;;;8.52;6.32;;;;;;;30.44;54.77;98165.75;5034913;28;20183;-53
2022/09/03 11:25:53;;;;;;;7.03;6.15;;;;;;;30.53;53.61;98159.81;5034608;28;20664;-53
2022/09/03 11:28:41;;;;;;;5.75;5.22;;;;;;;30.64;53.98;98166.16;5034566;28;20166;-54
2022/09/03 11:31:46;;;;;;;5.85;5.38;;;;;;;30.51;53.66;98167.25;5034865;28;20213;-54
2022/09/03 11:34:25;;;;;;;7.97;6.10;;;;;;;30.63;53.76;98160.00;5011861;28;20670;-54
2022/09/03 11:37:03;;;;;;;5.85;5.20;;;;;;;30.80;54.04;98155.56;5034744;28;20170;-53
2022/09/03 11:39:34;;;;;;;6.35;5.75;;;;;;;30.84;53.66;98161.22;5034564;28;20185;-54
2022/09/03 11:42:05;;;;;;;6.78;6.20;;;;;;;30.85;53.42;98152.16;5034377;28;20565;-54
2022/09/03 11:44:53;;;;;;;6.55;5.70;;;;;;;30.94;54.01;98153.38;5034280;28;20170;-53
2022/09/03 11:47:18;;;;;;;6.70;6.07;;;;;;;30.93;53.48;98157.09;5034471;28;20591;-54
2022/09/03 11:49:49;;;;;;;6.45;5.80;;;;;;;30.98;52.94;98141.97;5034500;28;20256;-54
2022/09/03 11:52:26;;;;;;;7.10;5.70;;;;;;;30.89;54.24;98122.03;5034441;28;20216;-54
2022/09/03 11:54:52;;;;;;;6.32;5.65;;;;;;;31.15;51.81;98147.34;5034062;28;20251;-54